createdAt,value
2019-04-29T00:00:51.701Z,4.73
2019-04-29T00:03:21.148Z,4.53
2019-04-29T00:05:50.127Z,4.77
2019-04-29T00:08:19.011Z,4.40
2019-04-29T00:10:47.983Z,4.50
2019-04-29T00:13:17.323Z,4.57
2019-04-29T00:16:04.850Z,5.37
2019-04-29T00:18:51.754Z,4.30
2019-04-29T00:21:21.102Z,5.23
2019-04-29T00:24:02.971Z,4.83
2019-04-29T00:26:20.605Z,5.00
2019-04-29T00:28:50.526Z,5.37
2019-04-29T00:31:19.428Z,5.10
2019-04-29T00:33:48.246Z,5.47
2019-04-29T00:36:18.752Z,5.50
2019-04-29T00:39:05.229Z,4.33
2019-04-29T00:41:48.431Z,5.13
2019-04-29T00:44:17.392Z,5.60
2019-04-29T00:46:46.434Z,5.80
2019-04-29T00:49:15.232Z,4.93
2019-04-29T00:51:43.955Z,5.33
2019-04-29T00:54:23.213Z,5.10
2019-04-29T00:56:52.095Z,5.70
2019-04-29T00:59:20.932Z,5.97
2019-04-29T01:01:49.884Z,5.50
2019-04-29T01:04:18.925Z,5.60
2019-04-29T01:06:47.704Z,5.90
2019-04-29T01:09:16.799Z,5.73
2019-04-29T01:11:45.671Z,5.60
2019-04-29T01:14:14.489Z,5.90
2019-04-29T01:16:43.340Z,5.70
2019-04-29T01:19:12.136Z,6.17
2019-04-29T01:21:40.990Z,5.97
2019-04-29T01:24:09.756Z,5.60
2019-04-29T01:26:56.815Z,5.93
2019-04-29T01:29:26.195Z,5.93
2019-04-29T01:31:55.061Z,5.60
2019-04-29T01:34:28.920Z,5.33
2019-04-29T01:36:57.747Z,5.83
2019-04-29T01:39:36.254Z,5.90
2019-04-29T01:42:14.229Z,6.70
2019-04-29T01:44:43.025Z,6.37
2019-04-29T01:47:11.784Z,5.83
2019-04-29T01:49:40.586Z,6.00
2019-04-29T01:52:09.394Z,6.33
2019-04-29T01:54:38.124Z,5.50
2019-04-29T01:57:06.959Z,5.63
2019-04-29T01:59:35.712Z,6.70
2019-04-29T02:02:04.633Z,6.30
2019-04-29T02:04:33.471Z,5.83
2019-04-29T02:07:02.345Z,6.47
2019-04-29T02:09:36.195Z,6.47
2019-04-29T02:12:05.056Z,6.90
2019-04-29T02:14:33.774Z,6.43
2019-04-29T02:17:02.491Z,6.67
2019-04-29T02:19:31.372Z,6.53
2019-04-29T02:22:18.207Z,7.23
2019-04-29T02:24:54.406Z,6.50
2019-04-29T02:27:23.219Z,7.37
2019-04-29T02:29:52.007Z,7.10
2019-04-29T02:32:20.834Z,7.17
2019-04-29T02:34:49.628Z,6.87
2019-04-29T02:37:24.528Z,6.20
2019-04-29T02:40:00.181Z,6.47
2019-04-29T02:42:44.820Z,6.53
2019-04-29T02:45:24.746Z,6.07
2019-04-29T02:47:53.469Z,6.57
2019-04-29T02:50:22.288Z,7.17
2019-04-29T02:52:51.177Z,6.93
2019-04-29T02:55:28.744Z,7.00
2019-04-29T02:58:12.624Z,6.43
2019-04-29T03:01:00.766Z,7.50
2019-04-29T03:04:07.093Z,7.27
2019-04-29T03:06:36.094Z,6.77
2019-04-29T03:09:06.119Z,7.50
2019-04-29T03:11:34.862Z,7.10
2019-04-29T03:14:03.803Z,7.20
2019-04-29T03:16:32.510Z,7.27
2019-04-29T03:19:06.326Z,7.70
2019-04-29T03:21:40.247Z,7.47
2019-04-29T03:24:09.123Z,7.20
2019-04-29T03:26:38.011Z,8.33
2019-04-29T03:29:08.702Z,7.87
2019-04-29T03:31:39.462Z,8.90
2019-04-29T03:34:08.032Z,8.07
2019-04-29T03:36:37.073Z,8.50
2019-04-29T03:39:06.297Z,8.60
2019-04-29T03:41:35.157Z,9.20
2019-04-29T03:44:03.988Z,10.13
2019-04-29T03:46:32.837Z,9.40
2019-04-29T03:49:01.680Z,9.80
2019-04-29T03:51:30.549Z,9.03
2019-04-29T03:53:59.372Z,9.90
2019-04-29T03:56:28.373Z,9.10
2019-04-29T03:58:57.188Z,9.20
2019-04-29T04:01:37.261Z,9.37
2019-04-29T04:04:19.084Z,8.77
2019-04-29T04:07:16.684Z,8.97
2019-04-29T04:09:45.556Z,9.07
2019-04-29T04:12:14.419Z,9.23
2019-04-29T04:14:43.239Z,8.97
2019-04-29T04:17:26.043Z,8.73
2019-04-29T04:19:54.963Z,8.90
2019-04-29T04:22:23.749Z,8.07
2019-04-29T04:24:53.089Z,8.60
2019-04-29T04:27:21.994Z,8.23
2019-04-29T04:29:50.838Z,7.50
2019-04-29T04:32:19.644Z,7.30
2019-04-29T04:34:48.482Z,6.43
2019-04-29T04:37:17.298Z,6.73
2019-04-29T04:39:46.395Z,6.27
2019-04-29T04:42:15.331Z,5.40
2019-04-29T04:44:50.581Z,5.80
2019-04-29T04:47:20.357Z,5.90
2019-04-29T04:49:49.320Z,5.13
2019-04-29T04:52:18.184Z,5.10
2019-04-29T04:54:49.059Z,4.47
2019-04-29T04:57:17.970Z,3.83
2019-04-29T04:59:46.847Z,4.53
2019-04-29T05:02:15.701Z,3.90
2019-04-29T05:04:44.600Z,3.93
2019-04-29T05:07:13.513Z,3.80
2019-04-29T05:09:42.347Z,3.57
2019-04-29T05:12:13.977Z,3.97
2019-04-29T05:14:41.834Z,4.20
2019-04-29T05:17:10.636Z,3.40
2019-04-29T05:19:39.451Z,3.60
2019-04-29T05:22:08.266Z,3.90
2019-04-29T05:24:37.111Z,3.77
2019-04-29T05:27:05.951Z,3.70
2019-04-29T05:29:34.880Z,3.77
2019-04-29T05:32:04.264Z,3.50
2019-04-29T05:34:35.101Z,3.07
2019-04-29T05:37:29.521Z,3.40
2019-04-29T05:39:58.770Z,3.00
2019-04-29T05:42:28.852Z,3.33
2019-04-29T05:45:04.722Z,3.27
2019-04-29T05:47:39.166Z,3.40
2019-04-29T05:50:20.240Z,2.80
2019-04-29T05:52:54.694Z,3.30
2019-04-29T05:55:23.543Z,3.37
2019-04-29T05:57:55.847Z,3.60
2019-04-29T06:00:25.126Z,3.60
2019-04-29T06:02:54.186Z,3.57
2019-04-29T06:05:23.194Z,3.33
2019-04-29T06:07:56.233Z,3.50
2019-04-29T06:10:24.362Z,3.30
2019-04-29T06:12:53.314Z,4.00
2019-04-29T06:15:22.163Z,4.07
2019-04-29T06:17:51.312Z,4.10
2019-04-29T06:20:22.757Z,4.70
2019-04-29T06:22:51.015Z,4.10
2019-04-29T06:25:20.037Z,4.83
2019-04-29T06:27:49.015Z,4.40
2019-04-29T06:30:18.036Z,4.93
2019-04-29T06:32:49.903Z,4.60
2019-04-29T06:35:18.820Z,5.10
2019-04-29T06:37:47.703Z,5.03
2019-04-29T06:40:16.614Z,5.30
2019-04-29T06:42:49.435Z,5.30
2019-04-29T06:45:17.113Z,5.40
2019-04-29T06:47:46.599Z,6.63
2019-04-29T06:50:15.731Z,5.17
2019-04-29T06:52:44.864Z,5.43
2019-04-29T06:55:13.853Z,5.17
2019-04-29T06:57:42.707Z,5.63
2019-04-29T07:00:12.227Z,6.10
2019-04-29T07:02:41.102Z,5.80
2019-04-29T07:05:10.176Z,5.50
2019-04-29T07:07:39.058Z,5.17
2019-04-29T07:10:08.775Z,5.30
2019-04-29T07:12:37.611Z,5.23
2019-04-29T07:15:07.756Z,5.27
2019-04-29T07:17:41.370Z,5.63
2019-04-29T07:20:08.129Z,5.60
2019-04-29T07:22:36.956Z,5.70
2019-04-29T07:25:06.400Z,5.47
2019-04-29T07:27:42.974Z,6.20
2019-04-29T07:30:08.312Z,6.43
2019-04-29T07:32:37.260Z,6.13
2019-04-29T07:35:09.793Z,7.20
2019-04-29T07:37:36.998Z,6.23
2019-04-29T07:40:07.993Z,6.63
2019-04-29T07:42:37.061Z,6.07
2019-04-29T07:45:43.990Z,6.13
2019-04-29T07:48:06.435Z,6.30
2019-04-29T07:50:35.834Z,7.20
2019-04-29T07:53:04.852Z,6.53
2019-04-29T07:55:33.636Z,6.53
2019-04-29T07:58:02.618Z,6.77
2019-04-29T08:00:35.133Z,6.23
2019-04-29T08:03:06.992Z,6.80
2019-04-29T08:05:36.410Z,7.00
2019-04-29T08:08:05.396Z,6.97
2019-04-29T08:10:34.587Z,6.93
2019-04-29T08:13:03.515Z,7.07
2019-04-29T08:15:32.349Z,6.73
2019-04-29T08:18:06.789Z,7.43
2019-04-29T08:20:35.326Z,6.97
2019-04-29T08:23:02.664Z,6.40
2019-04-29T08:25:33.014Z,7.10
2019-04-29T08:28:04.975Z,6.67
2019-04-29T08:30:34.539Z,6.80
2019-04-29T08:33:07.426Z,7.70
2019-04-29T08:35:36.881Z,7.90
2019-04-29T08:38:04.980Z,7.63
2019-04-29T08:40:34.359Z,7.47
2019-04-29T08:43:22.371Z,7.83
2019-04-29T08:45:58.171Z,6.77
2019-04-29T08:48:27.046Z,7.00
2019-04-29T08:50:57.686Z,7.10
2019-04-29T08:53:26.701Z,7.27
2019-04-29T08:55:55.692Z,7.00
2019-04-29T08:58:24.828Z,7.10
2019-04-29T09:00:55.743Z,7.50
2019-04-29T09:03:39.359Z,6.90
2019-04-29T09:06:05.047Z,7.07
2019-04-29T09:08:28.773Z,6.93
2019-04-29T09:10:59.758Z,6.47
2019-04-29T09:13:29.073Z,7.30
2019-04-29T09:15:58.341Z,6.67
2019-04-29T09:18:27.999Z,7.20
2019-04-29T09:20:57.425Z,7.20
2019-04-29T09:23:29.995Z,7.20
2019-04-29T09:26:24.451Z,7.50
2019-04-29T09:28:59.631Z,7.13
2019-04-29T09:31:25.331Z,7.17
2019-04-29T09:34:06.098Z,8.00
2019-04-29T09:36:25.021Z,7.77
2019-04-29T09:38:56.440Z,7.73
2019-04-29T09:41:39.620Z,7.33
2019-04-29T09:44:35.299Z,7.40
2019-04-29T09:47:08.527Z,7.30
2019-04-29T09:49:37.526Z,6.93
2019-04-29T09:52:07.089Z,7.07
2019-04-29T09:54:36.245Z,7.30
2019-04-29T09:57:05.783Z,6.63
2019-04-29T09:59:42.643Z,6.43
2019-04-29T10:02:26.224Z,6.43
2019-04-29T10:05:04.828Z,6.90
2019-04-29T10:07:34.266Z,6.47
2019-04-29T10:10:06.843Z,6.23
2019-04-29T10:12:35.009Z,6.20
2019-04-29T10:15:05.232Z,6.57
2019-04-29T10:18:05.620Z,6.40
2019-04-29T10:20:47.987Z,6.33
2019-04-29T10:23:16.923Z,6.50
2019-04-29T10:25:45.751Z,6.30
2019-04-29T10:28:15.360Z,6.47
2019-04-29T10:30:44.607Z,6.93
2019-04-29T10:33:17.520Z,6.37
2019-04-29T10:35:46.326Z,6.37
2019-04-29T10:38:15.267Z,6.53
2019-04-29T10:41:12.067Z,6.70
2019-04-29T10:44:08.087Z,6.60
2019-04-29T10:46:51.882Z,6.27
2019-04-29T10:49:26.304Z,5.97
2019-04-29T10:51:57.952Z,6.40
2019-04-29T10:54:27.901Z,6.10
2019-04-29T10:56:57.021Z,5.80
2019-04-29T10:59:35.659Z,6.03
2019-04-29T11:02:25.888Z,6.40
2019-04-29T11:04:57.888Z,5.37
2019-04-29T11:07:38.355Z,5.90
2019-04-29T11:10:24.995Z,6.33
2019-04-29T11:12:46.737Z,6.57
2019-04-29T11:15:16.186Z,6.43
2019-04-29T11:17:46.449Z,6.47
2019-04-29T11:20:15.982Z,6.07
2019-04-29T11:22:52.117Z,6.73
2019-04-29T11:25:40.456Z,6.50
2019-04-29T11:28:12.160Z,6.90
2019-04-29T11:30:40.691Z,7.43
2019-04-29T11:33:18.627Z,7.23
2019-04-29T11:35:59.129Z,7.10
2019-04-29T11:38:28.540Z,8.47
2019-04-29T11:40:58.779Z,8.13
2019-04-29T11:43:27.684Z,8.00
2019-04-29T11:45:56.775Z,8.23
2019-04-29T11:48:25.565Z,8.53
2019-04-29T11:51:16.783Z,8.57
2019-04-29T11:53:45.681Z,8.93
2019-04-29T11:56:14.633Z,9.13
2019-04-29T11:58:53.303Z,9.40
2019-04-29T12:01:41.146Z,9.57
2019-04-29T12:04:16.657Z,9.27
2019-04-29T12:06:45.631Z,9.37
2019-04-29T12:09:15.460Z,9.97
2019-04-29T12:11:46.343Z,10.63
2019-04-29T12:14:21.635Z,10.40
2019-04-29T12:16:58.135Z,11.07
2019-04-29T12:19:32.580Z,10.33
2019-04-29T12:22:04.811Z,10.60
2019-04-29T12:24:33.512Z,10.40
2019-04-29T12:27:08.615Z,10.40
2019-04-29T12:29:37.617Z,10.40
2019-04-29T12:32:20.626Z,10.13
2019-04-29T12:35:02.992Z,10.47
2019-04-29T12:38:00.618Z,10.37
2019-04-29T12:40:59.468Z,10.97
2019-04-29T12:43:48.697Z,11.37
2019-04-29T12:46:35.745Z,11.87
2019-04-29T12:49:08.664Z,11.20
2019-04-29T12:51:36.117Z,11.83
2019-04-29T12:54:05.193Z,12.67
2019-04-29T12:56:36.542Z,12.37
2019-04-29T12:59:06.144Z,12.43
2019-04-29T13:01:51.417Z,12.93
2019-04-29T13:04:32.469Z,13.20
2019-04-29T13:07:11.334Z,12.57
2019-04-29T13:09:42.693Z,12.93
2019-04-29T13:12:19.448Z,13.63
2019-04-29T13:15:03.081Z,13.80
2019-04-29T13:17:38.297Z,13.50
2019-04-29T13:20:11.855Z,14.13
2019-04-29T13:22:39.490Z,15.10
2019-04-29T13:25:09.384Z,14.30
2019-04-29T13:27:38.689Z,14.00
2019-04-29T13:30:14.840Z,15.10
2019-04-29T13:32:41.253Z,15.37
2019-04-29T13:35:12.642Z,15.10
2019-04-29T13:37:40.921Z,15.70
2019-04-29T13:40:10.446Z,16.10
2019-04-29T13:42:39.307Z,16.37
2019-04-29T13:45:13.550Z,16.00
2019-04-29T13:47:51.716Z,16.50
2019-04-29T13:50:38.676Z,16.47
2019-04-29T13:52:56.901Z,16.43
2019-04-29T13:55:47.184Z,17.20
2019-04-29T13:57:56.464Z,17.17
2019-04-29T14:00:44.867Z,17.10
2019-04-29T14:03:21.710Z,16.23
2019-04-29T14:06:03.575Z,17.90
2019-04-29T14:08:24.156Z,17.23
2019-04-29T14:10:52.799Z,16.90
2019-04-29T14:13:21.708Z,17.83
2019-04-29T14:15:50.582Z,17.97
2019-04-29T14:18:19.384Z,18.00
2019-04-29T14:20:51.768Z,18.57
2019-04-29T14:23:18.976Z,18.57
2019-04-29T14:25:47.849Z,18.97
2019-04-29T14:28:16.727Z,17.80
2019-04-29T14:30:47.663Z,18.47
2019-04-29T14:33:19.354Z,18.20
2019-04-29T14:36:07.259Z,18.77
2019-04-29T14:38:40.649Z,19.07
2019-04-29T14:41:06.806Z,21.27
2019-04-29T14:43:50.470Z,20.50
2019-04-29T14:46:38.555Z,20.83
2019-04-29T14:49:14.880Z,20.97
2019-04-29T14:51:43.853Z,21.73
2019-04-29T14:54:15.412Z,22.63
2019-04-29T14:56:44.444Z,23.17
2019-04-29T14:59:13.443Z,23.00
2019-04-29T15:01:50.957Z,23.13
2019-04-29T15:04:23.322Z,23.20
2019-04-29T15:06:52.330Z,23.40
2019-04-29T15:09:22.364Z,23.23
2019-04-29T15:11:59.064Z,23.30
2019-04-29T15:14:34.590Z,22.80
2019-04-29T15:17:11.357Z,24.17
2019-04-29T15:19:55.843Z,21.77
2019-04-29T15:22:26.612Z,22.10
2019-04-29T15:24:56.042Z,23.67
2019-04-29T15:27:25.770Z,23.67
2019-04-29T15:32:59.671Z,22.73
2019-04-29T15:35:28.804Z,22.93
2019-04-29T15:37:57.560Z,22.60
2019-04-29T15:40:28.579Z,24.60
2019-04-29T15:42:56.899Z,23.57
2019-04-29T15:45:27.968Z,24.40
2019-04-29T15:47:56.221Z,24.00
2019-04-29T15:50:25.111Z,23.47
2019-04-29T15:52:58.803Z,23.30
2019-04-29T15:55:27.861Z,23.57
2019-04-29T15:57:56.794Z,24.07
2019-04-29T16:00:25.980Z,22.40
2019-04-29T16:02:55.416Z,23.17
2019-04-29T16:05:36.385Z,23.47
2019-04-29T16:08:21.501Z,22.63
2019-04-29T16:11:08.353Z,23.90
2019-04-29T16:13:37.278Z,23.27
2019-04-29T16:16:06.253Z,23.47
2019-04-29T16:18:35.085Z,22.50
2019-04-29T16:21:03.961Z,22.77
2019-04-29T16:23:41.659Z,22.27
2019-04-29T16:26:10.592Z,23.27
2019-04-29T16:28:40.239Z,23.90
2019-04-29T16:31:12.236Z,22.60
2019-04-29T16:33:39.963Z,22.50
2019-04-29T16:36:08.843Z,22.17
2019-04-29T16:38:37.839Z,23.17
2019-04-29T16:41:19.410Z,22.23
2019-04-29T16:43:48.582Z,22.83
2019-04-29T16:46:24.247Z,22.47
2019-04-29T16:48:51.527Z,23.73
2019-04-29T16:51:20.444Z,22.53
2019-04-29T16:53:49.436Z,22.37
2019-04-29T16:56:18.309Z,22.67
2019-04-29T16:58:47.218Z,21.37
2019-04-29T17:01:18.771Z,21.40
2019-04-29T17:03:47.825Z,22.03
2019-04-29T17:06:17.209Z,22.63
2019-04-29T17:09:06.031Z,21.47
2019-04-29T17:11:35.729Z,23.30
2019-04-29T17:14:10.445Z,22.20
2019-04-29T17:16:35.363Z,22.67
2019-04-29T17:19:04.792Z,23.27
2019-04-29T17:21:33.739Z,22.60
2019-04-29T17:24:02.572Z,22.93
2019-04-29T17:26:39.797Z,23.87
2019-04-29T17:29:38.927Z,22.97
2019-04-29T17:32:21.353Z,23.50
2019-04-29T17:35:19.623Z,22.73
2019-04-29T17:37:21.567Z,23.10
2019-04-29T17:39:50.489Z,22.50
2019-04-29T17:42:19.469Z,29.47
2019-04-29T17:44:48.408Z,27.20
2019-04-29T17:47:47.436Z,24.70
2019-04-29T17:50:30.211Z,23.00
2019-04-29T17:52:51.562Z,22.17
2019-04-29T17:55:38.034Z,22.87
2019-04-29T17:58:08.125Z,22.10
2019-04-29T18:00:58.244Z,22.17
2019-04-29T18:03:41.277Z,23.50
2019-04-29T18:06:18.797Z,22.60
2019-04-29T18:08:54.990Z,21.23
2019-04-29T18:11:25.121Z,22.03
2019-04-29T18:13:56.883Z,22.80
2019-04-29T18:16:31.587Z,23.90
2019-04-29T18:19:11.469Z,22.43
2019-04-29T18:22:11.624Z,22.43
2019-04-29T18:24:49.626Z,21.10
2019-04-29T18:27:20.044Z,20.07
2019-04-29T18:29:48.989Z,19.67
2019-04-29T18:32:17.843Z,19.07
2019-04-29T18:34:46.668Z,18.77
2019-04-29T18:37:16.796Z,17.67
2019-04-29T18:39:45.863Z,17.77
2019-04-29T18:42:15.918Z,17.00
2019-04-29T18:44:54.951Z,15.80
2019-04-29T18:47:22.639Z,14.90
2019-04-29T18:49:47.303Z,14.77
2019-04-29T18:52:25.662Z,14.23
2019-04-29T18:54:47.148Z,13.37
2019-04-29T18:57:27.658Z,13.53
2019-04-29T18:59:47.237Z,13.33
2019-04-29T19:02:15.976Z,13.90
2019-04-29T19:04:56.790Z,12.90
2019-04-29T19:07:25.971Z,13.43
2019-04-29T19:09:55.510Z,12.87
2019-04-29T19:12:24.466Z,13.27
2019-04-29T19:14:59.751Z,12.27
2019-04-29T19:17:25.510Z,12.03
2019-04-29T19:19:55.291Z,12.40
2019-04-29T19:22:25.851Z,11.97
2019-04-29T19:24:55.796Z,11.23
2019-04-29T19:27:25.968Z,11.77
2019-04-29T19:29:55.029Z,11.43
2019-04-29T19:32:25.297Z,10.53
2019-04-29T19:34:57.299Z,11.10
2019-04-29T19:37:25.669Z,10.50
2019-04-29T19:39:57.066Z,11.43
2019-04-29T19:42:30.990Z,10.37
2019-04-29T19:44:57.374Z,9.57
2019-04-29T19:47:28.109Z,9.67
2019-04-29T19:49:56.740Z,9.50
2019-04-29T19:52:31.291Z,9.17
2019-04-29T19:55:03.211Z,9.73
2019-04-29T19:57:35.361Z,8.80
2019-04-29T20:00:17.775Z,8.10
2019-04-29T20:02:49.985Z,8.60
2019-04-29T20:05:34.000Z,9.10
2019-04-29T20:08:01.174Z,8.47
2019-04-29T20:10:31.508Z,8.23
2019-04-29T20:13:01.269Z,8.80
2019-04-29T20:15:34.359Z,7.97
2019-04-29T20:18:34.635Z,8.73
2019-04-29T20:21:08.951Z,8.27
2019-04-29T20:23:39.457Z,8.57
2019-04-29T20:26:15.366Z,8.40
2019-04-29T20:28:39.317Z,8.10
2019-04-29T20:31:18.764Z,8.20
2019-04-29T20:33:42.030Z,8.47
2019-04-29T20:36:09.877Z,7.50
2019-04-29T20:38:39.205Z,8.00
2019-04-29T20:41:08.531Z,7.80
2019-04-29T20:43:38.985Z,7.80
2019-04-29T20:46:08.170Z,8.00
2019-04-29T20:48:37.478Z,8.53
2019-04-29T20:51:13.127Z,8.50
2019-04-29T20:53:43.209Z,7.63
2019-04-29T20:56:16.987Z,7.73
2019-04-29T20:58:46.221Z,7.53
2019-04-29T21:01:20.947Z,7.97
2019-04-29T21:03:53.605Z,7.90
2019-04-29T21:06:20.279Z,8.27
2019-04-29T21:08:50.973Z,8.40
2019-04-29T21:11:26.631Z,8.93
2019-04-29T21:14:15.727Z,8.30
2019-04-29T21:16:46.795Z,7.90
2019-04-29T21:19:15.644Z,8.30
2019-04-29T21:21:45.859Z,8.43
2019-04-29T21:24:18.642Z,8.93
2019-04-29T21:26:46.051Z,8.77
2019-04-29T21:29:19.065Z,8.10
2019-04-29T21:31:46.091Z,7.87
2019-04-29T21:34:17.530Z,7.43
2019-04-29T21:37:01.518Z,8.07
2019-04-29T21:39:46.840Z,7.73
2019-04-29T21:42:47.107Z,7.57
2019-04-29T21:45:17.537Z,7.07
2019-04-29T21:47:52.943Z,6.13
2019-04-29T21:50:17.398Z,7.13
2019-04-29T21:52:46.858Z,6.70
2019-04-29T21:55:16.203Z,6.27
2019-04-29T21:57:45.284Z,5.83
2019-04-29T22:00:19.761Z,6.10
2019-04-29T22:02:48.989Z,5.80
2019-04-29T22:05:18.358Z,5.30
2019-04-29T22:07:47.575Z,5.00
2019-04-29T22:10:19.952Z,4.23
2019-04-29T22:12:51.016Z,4.50
2019-04-29T22:15:29.897Z,4.20
2019-04-29T22:17:56.602Z,3.90
2019-04-29T22:20:19.823Z,3.93
2019-04-29T22:22:48.737Z,3.80
2019-04-29T22:25:17.705Z,3.77
2019-04-29T22:27:46.633Z,3.60
2019-04-29T22:30:18.591Z,3.67
2019-04-29T22:32:51.743Z,3.20
2019-04-29T22:35:20.054Z,3.10
2019-04-29T22:37:48.920Z,3.20
2019-04-29T22:40:19.092Z,3.60
2019-04-29T22:43:10.222Z,3.33
2019-04-29T22:45:39.641Z,3.40
2019-04-29T22:48:16.564Z,3.73
2019-04-29T22:50:39.551Z,3.33
2019-04-29T22:53:08.942Z,3.40
2019-04-29T22:55:39.174Z,3.40
2019-04-29T22:58:10.010Z,8.60
2019-04-29T23:00:39.045Z,3.53
2019-04-29T23:03:07.825Z,3.80
2019-04-29T23:05:37.852Z,3.20
2019-04-29T23:08:06.963Z,3.20
2019-04-29T23:10:35.805Z,3.43
2019-04-29T23:13:06.165Z,3.47
2019-04-29T23:15:35.802Z,2.93
2019-04-29T23:18:05.641Z,3.23
2019-04-29T23:21:06.004Z,3.40
2019-04-29T23:23:40.247Z,3.60
2019-04-29T23:26:09.193Z,3.43
2019-04-29T23:28:37.941Z,3.37
2019-04-29T23:31:06.765Z,3.17
2019-04-29T23:33:36.136Z,3.40
2019-04-29T23:36:05.477Z,3.30
2019-04-29T23:38:34.394Z,3.33
2019-04-29T23:41:05.107Z,3.67
2019-04-29T23:43:35.432Z,3.33
2019-04-29T23:46:04.937Z,3.33
2019-04-29T23:48:57.362Z,4.00
2019-04-29T23:51:27.362Z,3.20
2019-04-29T23:54:00.361Z,3.40
2019-04-29T23:56:28.312Z,3.20
2019-04-29T23:59:18.263Z,3.23
